Time;durP1;ratioP1;P1;durP2;ratioP2;P2;SDS_P1;SDS_P2;PMS_P1;PMS_P2;Temp;Humidity;BMP_temperature;BMP_pressure;BME280_temperature;BME280_humidity;BME280_pressure;Samples;Min_cycle;Max_cycle;Signal;HPM_P1;HPM_P2
2022/02/17 00:00:30;;;;;;;64.20;40.53;;;;;;;;;;4977537;28;20039;-69
2022/02/17 00:02:56;;;;;;;58.80;39.20;;;;;;;;;;4977178;28;20432;-70
2022/02/17 00:05:22;;;;;;;59.47;38.57;;;;;;;;;;4977244;28;20031;-69
2022/02/17 00:07:49;;;;;;;62.17;41.43;;;;;;;;;;4977128;28;20062;-69
2022/02/17 00:10:15;;;;;;;57.57;39.40;;;;;;;;;;4977070;28;20039;-69
2022/02/17 00:12:41;;;;;;;58.50;41.03;;;;;;;;;;4977354;28;20039;-69
2022/02/17 00:15:08;;;;;;;61.53;41.00;;;;;;;;;;4976871;28;20031;-69
2022/02/17 00:17:34;;;;;;;57.07;39.50;;;;;;;;;;4977077;28;20034;-68
2022/02/17 00:20:00;;;;;;;60.43;39.83;;;;;;;;;;4977131;28;20114;-69
2022/02/17 00:22:26;;;;;;;60.80;40.63;;;;;;;;;;4976732;28;20047;-69
2022/02/17 00:24:52;;;;;;;63.47;40.57;;;;;;;;;;4977016;28;20114;-70
2022/02/17 00:27:19;;;;;;;59.70;38.73;;;;;;;;;;4976689;28;20495;-69
2022/02/17 00:29:45;;;;;;;57.43;39.43;;;;;;;;;;4976644;28;20031;-69
2022/02/17 00:32:13;;;;;;;59.17;38.23;;;;;;;;;;4976997;28;20031;-69
2022/02/17 00:34:39;;;;;;;60.17;38.13;;;;;;;;;;4976421;28;20471;-70
2022/02/17 00:37:05;;;;;;;59.90;38.17;;;;;;;;;;4976624;28;20039;-69
2022/02/17 00:39:31;;;;;;;58.13;37.90;;;;;;;;;;4977045;28;20186;-69
2022/02/17 00:41:58;;;;;;;56.77;37.27;;;;;;;;;;4976728;28;20050;-69
2022/02/17 00:44:24;;;;;;;57.53;37.47;;;;;;;;;;4991414;28;20392;-69
2022/02/17 00:46:51;;;;;;;61.73;39.90;;;;;;;;;;4976626;28;20035;-69
2022/02/17 00:49:17;;;;;;;60.00;37.67;;;;;;;;;;4976414;28;20035;-69
2022/02/17 00:51:43;;;;;;;56.03;36.60;;;;;;;;;;4976502;28;20105;-70
2022/02/17 00:54:10;;;;;;;58.03;37.97;;;;;;;;;;4976475;28;20066;-70
2022/02/17 00:56:37;;;;;;;56.13;38.07;;;;;;;;;;4976339;28;20069;-69
2022/02/17 00:59:03;;;;;;;54.13;35.57;;;;;;;;;;4975842;28;20038;-69
2022/02/17 01:01:29;;;;;;;54.43;36.57;;;;;;;;;;4976080;28;20046;-69
2022/02/17 01:03:55;;;;;;;55.17;37.00;;;;;;;;;;4976097;28;20082;-70
2022/02/17 01:06:21;;;;;;;56.60;36.07;;;;;;;;;;4976001;28;20039;-69
2022/02/17 01:08:47;;;;;;;57.37;36.93;;;;;;;;;;4976275;28;20102;-69
2022/02/17 01:11:14;;;;;;;59.30;39.30;;;;;;;;;;4976323;28;20049;-69
2022/02/17 01:13:40;;;;;;;55.73;37.47;;;;;;;;;;4975784;28;20383;-69
2022/02/17 01:16:07;;;;;;;56.33;38.50;;;;;;;;;;4975978;28;20077;-69
2022/02/17 01:18:33;;;;;;;60.67;40.60;;;;;;;;;;4975863;28;20565;-70
2022/02/17 01:20:59;;;;;;;60.57;40.30;;;;;;;;;;4975860;28;20072;-69
2022/02/17 01:23:25;;;;;;;66.03;42.13;;;;;;;;;;4975926;28;20034;-69
2022/02/17 01:25:51;;;;;;;64.50;41.10;;;;;;;;;;4975907;28;20035;-70
2022/02/17 01:28:18;;;;;;;65.70;43.37;;;;;;;;;;4975622;28;20050;-69
2022/02/17 01:30:44;;;;;;;66.00;42.00;;;;;;;;;;4975573;28;20121;-70
2022/02/17 01:33:10;;;;;;;65.77;43.40;;;;;;;;;;4975331;28;20042;-70
2022/02/17 01:35:36;;;;;;;61.73;40.63;;;;;;;;;;4975269;28;20476;-69
2022/02/17 01:38:03;;;;;;;63.57;40.23;;;;;;;;;;4975799;28;20089;-69
2022/02/17 01:40:29;;;;;;;63.53;38.87;;;;;;;;;;4975503;28;20502;-69
2022/02/17 01:42:55;;;;;;;64.27;42.17;;;;;;;;;;4975386;28;20046;-68
2022/02/17 01:45:21;;;;;;;62.60;40.47;;;;;;;;;;4975705;28;20035;-69
2022/02/17 01:47:48;;;;;;;60.60;40.93;;;;;;;;;;4975265;28;20027;-69
2022/02/17 01:50:15;;;;;;;61.57;41.27;;;;;;;;;;4975207;28;20129;-69
2022/02/17 01:52:41;;;;;;;61.93;40.97;;;;;;;;;;4975551;28;20398;-70
2022/02/17 01:55:07;;;;;;;64.73;42.07;;;;;;;;;;4975487;28;20101;-69
2022/02/17 01:57:34;;;;;;;63.20;41.17;;;;;;;;;;4974769;28;20070;-69
2022/02/17 02:00:00;;;;;;;64.83;42.03;;;;;;;;;;4972681;28;20043;-68
2022/02/17 02:02:27;;;;;;;63.20;40.70;;;;;;;;;;4972462;28;20530;-69
2022/02/17 02:04:53;;;;;;;65.90;40.77;;;;;;;;;;4974066;28;20086;-70
2022/02/17 02:07:19;;;;;;;61.23;40.30;;;;;;;;;;4974891;28;20038;-69
2022/02/17 02:09:45;;;;;;;64.27;42.53;;;;;;;;;;4974996;28;20443;-68
2022/02/17 02:12:12;;;;;;;66.67;42.70;;;;;;;;;;4975271;28;20035;-69
2022/02/17 02:14:51;;;;;;;65.37;41.73;;;;;;;;;;4974909;28;20050;-69
2022/02/17 02:17:19;;;;;;;63.77;41.83;;;;;;;;;;4974957;28;20078;-69
2022/02/17 02:19:45;;;;;;;68.43;43.83;;;;;;;;;;4975133;28;20086;-69
2022/02/17 02:22:11;;;;;;;66.10;42.33;;;;;;;;;;4974649;28;20129;-70
2022/02/17 02:24:37;;;;;;;62.40;41.27;;;;;;;;;;4974775;28;20113;-69
2022/02/17 02:27:11;;;;;;;66.37;42.53;;;;;;;;;;4974743;28;20066;-70
2022/02/17 02:29:37;;;;;;;62.70;41.00;;;;;;;;;;4974626;28;20042;-68
2022/02/17 02:32:03;;;;;;;62.77;40.23;;;;;;;;;;4974424;28;20031;-70
2022/02/17 02:34:29;;;;;;;66.47;42.83;;;;;;;;;;4974087;28;20058;-69
2022/02/17 02:36:55;;;;;;;68.73;43.03;;;;;;;;;;4974251;28;20043;-69
2022/02/17 02:39:21;;;;;;;65.80;43.17;;;;;;;;;;4974579;28;20109;-69
2022/02/17 02:41:47;;;;;;;64.80;42.70;;;;;;;;;;4974473;28;20047;-69
2022/02/17 02:44:13;;;;;;;65.57;42.20;;;;;;;;;;4974467;28;20042;-69
2022/02/17 02:46:39;;;;;;;64.10;42.80;;;;;;;;;;4974762;28;20031;-69
2022/02/17 02:49:05;;;;;;;64.43;42.33;;;;;;;;;;4974505;28;20054;-69
2022/02/17 02:51:31;;;;;;;59.60;40.07;;;;;;;;;;4974407;28;20034;-68
2022/02/17 02:53:59;;;;;;;62.60;39.30;;;;;;;;;;4974308;28;20038;-68
2022/02/17 02:56:25;;;;;;;63.07;40.87;;;;;;;;;;4974419;28;20050;-69
2022/02/17 02:58:51;;;;;;;62.33;41.30;;;;;;;;;;4974123;28;20034;-68
2022/02/17 03:01:19;;;;;;;63.70;41.17;;;;;;;;;;4974296;28;20043;-69
2022/02/17 03:03:49;;;;;;;64.67;41.47;;;;;;;;;;4974438;28;20105;-69
2022/02/17 03:06:15;;;;;;;65.27;42.73;;;;;;;;;;4973893;28;20491;-69
2022/02/17 03:08:41;;;;;;;64.20;44.53;;;;;;;;;;4974313;28;20039;-69
2022/02/17 03:11:07;;;;;;;64.40;41.47;;;;;;;;;;4974179;28;20031;-69
2022/02/17 03:13:33;;;;;;;61.67;41.60;;;;;;;;;;4973764;28;20113;-69
2022/02/17 03:15:59;;;;;;;66.03;42.73;;;;;;;;;;4973958;28;20365;-69
2022/02/17 03:18:25;;;;;;;69.17;43.77;;;;;;;;;;4974204;28;20443;-70
2022/02/17 03:20:51;;;;;;;66.13;43.77;;;;;;;;;;4973887;28;20089;-68
2022/02/17 03:23:17;;;;;;;66.90;41.97;;;;;;;;;;4974208;28;20435;-69
2022/02/17 03:25:43;;;;;;;65.63;42.87;;;;;;;;;;4974001;28;20031;-69
2022/02/17 03:28:09;;;;;;;63.23;40.73;;;;;;;;;;4973937;28;20543;-69
2022/02/17 03:30:35;;;;;;;61.90;40.00;;;;;;;;;;4974076;28;20038;-69
2022/02/17 03:33:02;;;;;;;57.40;39.03;;;;;;;;;;4973985;28;20454;-69
2022/02/17 03:35:28;;;;;;;62.40;39.30;;;;;;;;;;4974181;28;20077;-69
2022/02/17 03:37:54;;;;;;;66.93;42.53;;;;;;;;;;4973940;28;20038;-69
2022/02/17 03:40:20;;;;;;;64.77;40.37;;;;;;;;;;4974146;28;20034;-69
2022/02/17 03:42:46;;;;;;;59.33;39.20;;;;;;;;;;4973859;28;20074;-69
2022/02/17 03:45:12;;;;;;;60.20;38.87;;;;;;;;;;4973940;28;20035;-68
2022/02/17 03:47:38;;;;;;;60.53;39.30;;;;;;;;;;4973968;28;20484;-68
2022/02/17 03:50:05;;;;;;;57.93;38.27;;;;;;;;;;4974122;28;20488;-68
2022/02/17 03:52:31;;;;;;;56.43;38.07;;;;;;;;;;4973695;28;20034;-68
2022/02/17 03:54:57;;;;;;;62.10;39.67;;;;;;;;;;4973911;28;20590;-69
2022/02/17 03:57:23;;;;;;;63.03;40.70;;;;;;;;;;4974054;28;20027;-68
2022/02/17 03:59:49;;;;;;;62.23;41.30;;;;;;;;;;4973915;28;20071;-68
2022/02/17 04:02:15;;;;;;;60.83;39.73;;;;;;;;;;4973683;28;20051;-68
2022/02/17 04:04:41;;;;;;;65.60;41.50;;;;;;;;;;4973769;28;20396;-68
2022/02/17 04:07:07;;;;;;;65.17;43.33;;;;;;;;;;4973498;28;20480;-70
2022/02/17 04:09:34;;;;;;;66.70;42.37;;;;;;;;;;4973823;28;20495;-68
2022/02/17 04:12:00;;;;;;;60.37;39.63;;;;;;;;;;4973916;28;20042;-68
2022/02/17 04:14:26;;;;;;;59.20;39.87;;;;;;;;;;4973644;28;20031;-69
2022/02/17 04:16:52;;;;;;;60.63;39.33;;;;;;;;;;4973670;28;20035;-68
2022/02/17 04:19:18;;;;;;;63.83;40.27;;;;;;;;;;4973419;28;20484;-68
2022/02/17 04:21:44;;;;;;;57.10;37.27;;;;;;;;;;4973357;28;20078;-68
2022/02/17 04:24:10;;;;;;;63.33;40.13;;;;;;;;;;4973766;28;20034;-68
2022/02/17 04:26:37;;;;;;;56.37;37.90;;;;;;;;;;4973784;28;20027;-68
2022/02/17 04:29:03;;;;;;;62.17;39.57;;;;;;;;;;4973584;28;20035;-68
2022/02/17 04:31:29;;;;;;;61.83;40.63;;;;;;;;;;4973173;28;20039;-68
2022/02/17 04:33:55;;;;;;;61.57;39.87;;;;;;;;;;4976093;28;20173;-68
2022/02/17 04:36:22;;;;;;;64.00;40.60;;;;;;;;;;4976991;28;20413;-68
2022/02/17 04:38:48;;;;;;;59.43;38.37;;;;;;;;;;4976964;28;20030;-68
2022/02/17 04:43:59;;;;;;;59.77;38.80;;;;;;;;;;4977066;28;20038;-68
2022/02/17 04:46:25;;;;;;;61.30;38.93;;;;;;;;;;4976841;28;20042;-68
2022/02/17 04:48:51;;;;;;;60.33;38.97;;;;;;;;;;4976682;28;20121;-69
2022/02/17 04:51:18;;;;;;;61.87;38.83;;;;;;;;;;4976560;28;20391;-68
2022/02/17 04:53:44;;;;;;;56.83;36.67;;;;;;;;;;4976654;28;20122;-68
2022/02/17 04:56:10;;;;;;;58.93;39.23;;;;;;;;;;4976846;28;20054;-69
2022/02/17 04:58:36;;;;;;;61.27;38.70;;;;;;;;;;4976953;28;20031;-68
2022/02/17 05:01:03;;;;;;;57.67;37.77;;;;;;;;;;4976275;28;20077;-68
2022/02/17 05:03:29;;;;;;;58.63;37.70;;;;;;;;;;4976514;28;20045;-68
2022/02/17 05:05:56;;;;;;;56.40;37.43;;;;;;;;;;4976423;28;20031;-68
2022/02/17 05:08:22;;;;;;;57.67;37.50;;;;;;;;;;4976423;28;20058;-69
2022/02/17 05:10:49;;;;;;;60.67;38.63;;;;;;;;;;4976538;28;20400;-69
2022/02/17 05:13:15;;;;;;;56.30;36.17;;;;;;;;;;4976014;28;20503;-69
2022/02/17 05:15:42;;;;;;;55.20;36.33;;;;;;;;;;4976172;28;20027;-68
2022/02/17 05:18:08;;;;;;;60.87;37.70;;;;;;;;;;4976236;28;20058;-68
2022/02/17 05:20:34;;;;;;;58.67;38.23;;;;;;;;;;4976109;28;20123;-68
2022/02/17 05:23:01;;;;;;;60.53;38.07;;;;;;;;;;4976365;28;20484;-69
2022/02/17 05:25:27;;;;;;;60.60;38.20;;;;;;;;;;4975925;28;20480;-69
2022/02/17 05:27:54;;;;;;;61.90;37.90;;;;;;;;;;4976191;28;20039;-69
2022/02/17 05:30:20;;;;;;;59.60;39.23;;;;;;;;;;4976122;28;20066;-68
2022/02/17 05:32:46;;;;;;;59.33;39.43;;;;;;;;;;4975779;28;20549;-69
2022/02/17 05:35:12;;;;;;;62.10;40.43;;;;;;;;;;4975772;28;20057;-69
2022/02/17 05:37:39;;;;;;;66.07;37.23;;;;;;;;;;4975852;28;20430;-68
2022/02/17 05:40:06;;;;;;;58.10;37.53;;;;;;;;;;4975680;28;20080;-69
2022/02/17 05:42:32;;;;;;;62.00;40.20;;;;;;;;;;4975688;28;20081;-69
2022/02/17 05:44:58;;;;;;;60.87;39.13;;;;;;;;;;4975466;28;20400;-68
2022/02/17 05:47:24;;;;;;;64.83;40.33;;;;;;;;;;4975750;28;20098;-68
2022/02/17 05:49:50;;;;;;;63.90;41.00;;;;;;;;;;4976078;28;20066;-69
2022/02/17 05:52:16;;;;;;;69.37;42.07;;;;;;;;;;4975662;28;20134;-68
2022/02/17 05:54:42;;;;;;;71.80;42.43;;;;;;;;;;4975523;28;20089;-68
2022/02/17 05:57:08;;;;;;;74.03;45.27;;;;;;;;;;4975579;28;20063;-69
2022/02/17 05:59:35;;;;;;;70.87;42.60;;;;;;;;;;4975760;28;20046;-69
2022/02/17 06:02:01;;;;;;;75.73;43.30;;;;;;;;;;4975316;28;20484;-68
2022/02/17 06:04:27;;;;;;;70.37;43.30;;;;;;;;;;4975422;28;20045;-68
2022/02/17 06:06:53;;;;;;;73.63;42.03;;;;;;;;;;4975210;28;20042;-68
2022/02/17 06:09:19;;;;;;;71.70;43.00;;;;;;;;;;4975233;28;20109;-68
2022/02/17 06:11:45;;;;;;;71.87;42.37;;;;;;;;;;4975163;28;20169;-68
2022/02/17 06:14:11;;;;;;;74.03;43.30;;;;;;;;;;4974702;28;20395;-68
2022/02/17 06:16:37;;;;;;;75.67;42.93;;;;;;;;;;4975010;28;20039;-69
2022/02/17 06:19:03;;;;;;;76.20;43.13;;;;;;;;;;4974948;28;20030;-70
2022/02/17 06:21:29;;;;;;;75.30;41.30;;;;;;;;;;4975154;28;20439;-68
2022/02/17 06:23:55;;;;;;;72.60;42.73;;;;;;;;;;4974636;28;20038;-69
2022/02/17 06:26:21;;;;;;;76.90;42.67;;;;;;;;;;4974510;28;20484;-69
2022/02/17 06:28:47;;;;;;;74.90;41.83;;;;;;;;;;4974482;28;20082;-69
2022/02/17 06:31:13;;;;;;;79.90;43.63;;;;;;;;;;4974488;28;20049;-68
2022/02/17 06:33:39;;;;;;;79.50;44.60;;;;;;;;;;4974579;28;20419;-69
2022/02/17 06:36:05;;;;;;;74.33;42.40;;;;;;;;;;4974815;28;20061;-68
2022/02/17 06:38:32;;;;;;;75.20;42.70;;;;;;;;;;4974818;28;20053;-68
2022/02/17 06:40:58;;;;;;;68.27;41.00;;;;;;;;;;4974483;28;20395;-68
2022/02/17 06:43:26;;;;;;;73.27;43.20;;;;;;;;;;4974316;28;20035;-69
2022/02/17 06:45:52;;;;;;;73.67;42.00;;;;;;;;;;4974589;28;20035;-67
2022/02/17 06:48:18;;;;;;;85.60;44.63;;;;;;;;;;4975347;28;20050;-68
2022/02/17 06:50:44;;;;;;;76.17;42.43;;;;;;;;;;4974538;28;20061;-68
2022/02/17 06:53:10;;;;;;;76.87;44.03;;;;;;;;;;4974589;28;20071;-69
2022/02/17 06:55:36;;;;;;;79.80;44.13;;;;;;;;;;4973664;28;20129;-68
2022/02/17 06:58:03;;;;;;;77.60;44.17;;;;;;;;;;4973812;28;20031;-68
2022/02/17 07:00:29;;;;;;;79.33;44.20;;;;;;;;;;4973822;28;20097;-68
2022/02/17 07:02:55;;;;;;;81.90;44.70;;;;;;;;;;4972590;28;20057;-68
2022/02/17 07:05:22;;;;;;;77.50;44.47;;;;;;;;;;4974320;28;20031;-68
2022/02/17 07:07:49;;;;;;;78.23;43.23;;;;;;;;;;4974159;28;20038;-68
2022/02/17 07:10:54;;;;;;;81.37;43.63;;;;;;;;;;4974116;28;20112;-68
2022/02/17 07:13:01;;;;;;;69.33;40.83;;;;;;;;;;4973903;28;20503;-69
2022/02/17 07:15:30;;;;;;;71.67;40.97;;;;;;;;;;4974079;28;20050;-68
2022/02/17 07:17:56;;;;;;;77.23;40.97;;;;;;;;;;4973832;28;20365;-68
2022/02/17 07:20:22;;;;;;;67.73;40.43;;;;;;;;;;4974046;28;20460;-69
2022/02/17 07:22:48;;;;;;;76.00;41.43;;;;;;;;;;4974185;28;20047;-68
2022/02/17 07:25:14;;;;;;;75.57;41.67;;;;;;;;;;4973963;28;20067;-68
2022/02/17 07:27:40;;;;;;;76.20;42.43;;;;;;;;;;4974028;28;20547;-68
2022/02/17 07:30:07;;;;;;;75.63;41.20;;;;;;;;;;4973634;28;20031;-68
2022/02/17 07:32:33;;;;;;;73.07;41.67;;;;;;;;;;4973773;28;20070;-68
2022/02/17 07:34:59;;;;;;;75.90;41.20;;;;;;;;;;4973528;28;20051;-68
2022/02/17 07:37:25;;;;;;;71.03;41.97;;;;;;;;;;4973246;28;20041;-68
2022/02/17 07:39:51;;;;;;;72.57;42.07;;;;;;;;;;4972752;28;20121;-69
2022/02/17 07:42:17;;;;;;;69.77;40.57;;;;;;;;;;4973865;28;20133;-70
2022/02/17 07:44:43;;;;;;;70.30;39.70;;;;;;;;;;4973420;28;20102;-68
2022/02/17 07:47:09;;;;;;;68.40;39.90;;;;;;;;;;4973524;28;20480;-67
2022/02/17 07:49:35;;;;;;;68.10;37.30;;;;;;;;;;4973788;28;20066;-70
2022/02/17 07:52:01;;;;;;;74.20;41.73;;;;;;;;;;4973321;28;20039;-66
2022/02/17 07:54:27;;;;;;;72.73;40.97;;;;;;;;;;4972607;28;20035;-65
2022/02/17 07:56:53;;;;;;;67.63;39.27;;;;;;;;;;4972640;28;20042;-66
2022/02/17 07:59:19;;;;;;;70.30;40.90;;;;;;;;;;4973219;28;20037;-68
2022/02/17 08:01:45;;;;;;;72.40;40.30;;;;;;;;;;4973342;28;20038;-66
2022/02/17 08:04:11;;;;;;;70.50;39.07;;;;;;;;;;4973831;28;20118;-65
2022/02/17 08:06:38;;;;;;;70.73;40.10;;;;;;;;;;4974422;28;20575;-68
2022/02/17 08:09:04;;;;;;;70.83;39.80;;;;;;;;;;4977382;28;20038;-65
2022/02/17 08:11:30;;;;;;;72.40;41.13;;;;;;;;;;4977040;28;20050;-66
2022/02/17 08:13:57;;;;;;;72.97;39.87;;;;;;;;;;4977240;28;20093;-65
2022/02/17 08:16:23;;;;;;;76.10;40.63;;;;;;;;;;4977256;28;20408;-65
2022/02/17 08:18:49;;;;;;;69.70;39.70;;;;;;;;;;4977358;28;20050;-69
2022/02/17 08:21:15;;;;;;;71.33;39.90;;;;;;;;;;4976860;28;20027;-65
2022/02/17 08:23:41;;;;;;;68.90;40.27;;;;;;;;;;4976830;28;20109;-65
2022/02/17 08:26:07;;;;;;;71.03;40.10;;;;;;;;;;4977351;28;20475;-65
2022/02/17 08:28:33;;;;;;;76.63;39.60;;;;;;;;;;4977349;28;20590;-65
2022/02/17 08:30:59;;;;;;;69.33;38.73;;;;;;;;;;4977366;28;20051;-65
2022/02/17 08:33:25;;;;;;;64.80;40.13;;;;;;;;;;4976919;28;20049;-65
2022/02/17 08:35:51;;;;;;;68.27;40.37;;;;;;;;;;4976734;28;20109;-65
2022/02/17 08:38:18;;;;;;;63.80;39.80;;;;;;;;;;4976325;28;20439;-66
2022/02/17 08:40:44;;;;;;;75.00;39.50;;;;;;;;;;4977257;28;20054;-65
2022/02/17 08:43:10;;;;;;;68.13;40.17;;;;;;;;;;4977172;28;20038;-65
2022/02/17 08:45:41;;;;;;;73.90;41.33;;;;;;;;;;4977079;28;20447;-70
2022/02/17 08:48:08;;;;;;;69.00;39.93;;;;;;;;;;4976885;28;20039;-66
2022/02/17 08:50:35;;;;;;;64.23;39.50;;;;;;;;;;4976794;28;20027;-66
2022/02/17 08:53:01;;;;;;;63.73;39.40;;;;;;;;;;4976735;28;20042;-71
2022/02/17 08:55:27;;;;;;;64.80;39.77;;;;;;;;;;4977010;28;20460;-65
2022/02/17 08:57:54;;;;;;;62.90;37.50;;;;;;;;;;4976805;28;20039;-70
2022/02/17 09:00:20;;;;;;;58.17;36.67;;;;;;;;;;4976838;28;20487;-65
2022/02/17 09:02:46;;;;;;;61.63;36.33;;;;;;;;;;4976810;28;20050;-65
2022/02/17 09:05:12;;;;;;;63.50;37.23;;;;;;;;;;4976471;28;20035;-65
2022/02/17 09:07:38;;;;;;;59.47;36.00;;;;;;;;;;4976464;28;20054;-65
2022/02/17 09:10:05;;;;;;;58.00;37.07;;;;;;;;;;4976543;28;20042;-66
2022/02/17 09:12:32;;;;;;;60.33;35.03;;;;;;;;;;4976582;28;20050;-65
2022/02/17 09:14:58;;;;;;;57.47;34.17;;;;;;;;;;4976490;28;20038;-65
2022/02/17 09:17:24;;;;;;;59.53;35.23;;;;;;;;;;4976390;28;20514;-65
2022/02/17 09:19:50;;;;;;;56.77;34.07;;;;;;;;;;4975464;28;20402;-66
2022/02/17 09:22:16;;;;;;;57.70;34.80;;;;;;;;;;4975810;28;20488;-65
2022/02/17 09:24:42;;;;;;;56.00;35.73;;;;;;;;;;4976272;28;20121;-70
2022/02/17 09:27:08;;;;;;;53.93;33.07;;;;;;;;;;4976336;28;20038;-66
2022/02/17 09:29:35;;;;;;;54.63;33.23;;;;;;;;;;4976144;28;20046;-65
2022/02/17 09:32:01;;;;;;;59.07;34.83;;;;;;;;;;4975799;28;20531;-65
2022/02/17 09:34:27;;;;;;;53.13;32.43;;;;;;;;;;4976002;28;20051;-64
2022/02/17 09:36:53;;;;;;;56.27;35.10;;;;;;;;;;4976036;28;20037;-65
2022/02/17 09:39:21;;;;;;;54.13;33.73;;;;;;;;;;4976173;28;20039;-65
2022/02/17 09:41:47;;;;;;;59.00;34.53;;;;;;;;;;4975425;28;20055;-65
2022/02/17 09:44:13;;;;;;;54.67;34.13;;;;;;;;;;4974487;28;20030;-65
2022/02/17 09:46:45;;;;;;;56.10;35.07;;;;;;;;;;4974068;28;20434;-66
2022/02/17 09:49:14;;;;;;;58.40;35.20;;;;;;;;;;4975632;28;20047;-68
2022/02/17 09:51:42;;;;;;;53.80;34.07;;;;;;;;;;4975533;28;20576;-66
2022/02/17 09:54:09;;;;;;;55.83;35.30;;;;;;;;;;4975550;28;20054;-66
2022/02/17 09:56:38;;;;;;;54.57;33.47;;;;;;;;;;4975592;28;20050;-65
2022/02/17 09:59:04;;;;;;;58.33;35.20;;;;;;;;;;4975240;28;20453;-65
2022/02/17 10:01:31;;;;;;;59.07;34.83;;;;;;;;;;4975251;28;20050;-65
2022/02/17 10:04:16;;;;;;;52.10;33.50;;;;;;;;;;4975303;28;20031;-67
2022/02/17 10:06:42;;;;;;;53.03;33.07;;;;;;;;;;4975060;28;20039;-69
2022/02/17 10:09:09;;;;;;;49.53;33.07;;;;;;;;;;4975429;28;20027;-69
2022/02/17 10:11:36;;;;;;;51.80;34.63;;;;;;;;;;4974842;28;20031;-65
2022/02/17 10:14:04;;;;;;;50.07;32.90;;;;;;;;;;4975286;28;20403;-70
2022/02/17 10:16:30;;;;;;;47.40;32.40;;;;;;;;;;4975324;28;20039;-70
2022/02/17 10:19:09;;;;;;;48.67;32.30;;;;;;;;;;4974918;28;20027;-70
2022/02/17 10:21:35;;;;;;;52.33;33.17;;;;;;;;;;4974761;28;20040;-65
2022/02/17 10:24:01;;;;;;;51.20;33.87;;;;;;;;;;4974962;28;20066;-67
2022/02/17 10:26:30;;;;;;;49.13;35.77;;;;;;;;;;4974939;28;20043;-65
2022/02/17 10:28:59;;;;;;;51.37;35.17;;;;;;;;;;4974818;28;20391;-65
2022/02/17 10:31:29;;;;;;;53.20;34.53;;;;;;;;;;4974195;28;20058;-65
2022/02/17 10:33:57;;;;;;;52.67;33.67;;;;;;;;;;4974381;28;20053;-65
2022/02/17 10:36:35;;;;;;;48.00;32.43;;;;;;;;;;4974188;28;20114;-65
2022/02/17 10:39:07;;;;;;;47.57;32.70;;;;;;;;;;4973172;28;20031;-65
2022/02/17 10:41:52;;;;;;;48.13;30.50;;;;;;;;;;4974199;28;20102;-70
2022/02/17 10:44:20;;;;;;;50.90;34.17;;;;;;;;;;4984973;28;20035;-70
2022/02/17 10:46:46;;;;;;;50.63;32.97;;;;;;;;;;4974106;28;20027;-65
2022/02/17 10:49:13;;;;;;;49.43;33.23;;;;;;;;;;4974228;28;20459;-69
2022/02/17 10:51:39;;;;;;;52.30;32.73;;;;;;;;;;4977083;28;20018;-65
2022/02/17 10:54:06;;;;;;;49.47;33.97;;;;;;;;;;4985351;28;20042;-65
2022/02/17 10:56:34;;;;;;;48.80;32.73;;;;;;;;;;4974226;28;20113;-69
2022/02/17 10:59:01;;;;;;;44.93;31.73;;;;;;;;;;4973986;28;20395;-65
2022/02/17 11:01:28;;;;;;;47.50;32.53;;;;;;;;;;4973990;28;20405;-65
2022/02/17 11:03:54;;;;;;;47.73;31.80;;;;;;;;;;4974193;28;20411;-65
2022/02/17 11:06:24;;;;;;;50.23;32.53;;;;;;;;;;4974124;28;20046;-65
2022/02/17 11:08:51;;;;;;;50.57;34.97;;;;;;;;;;4973445;28;20031;-69
2022/02/17 11:11:20;;;;;;;49.30;34.03;;;;;;;;;;4974347;28;20031;-66
2022/02/17 11:13:46;;;;;;;47.33;32.70;;;;;;;;;;4973888;28;20035;-65
2022/02/17 11:16:15;;;;;;;48.53;33.80;;;;;;;;;;4974219;28;20085;-65
2022/02/17 11:18:41;;;;;;;47.83;31.93;;;;;;;;;;4974213;28;20427;-65
2022/02/17 11:21:14;;;;;;;48.17;32.83;;;;;;;;;;4974230;28;20105;-65
2022/02/17 11:23:41;;;;;;;51.90;34.25;;;;;;;;;;4974232;28;20082;-65
2022/02/17 11:26:24;;;;;;;47.83;33.70;;;;;;;;;;4973697;28;20035;-65
2022/02/17 11:28:50;;;;;;;44.23;30.90;;;;;;;;;;4973597;28;20110;-65
2022/02/17 11:31:17;;;;;;;45.03;33.77;;;;;;;;;;4974006;28;20035;-66
2022/02/17 11:33:54;;;;;;;46.90;33.83;;;;;;;;;;4972818;28;20046;-70
2022/02/17 11:36:21;;;;;;;44.20;33.57;;;;;;;;;;4973760;28;20035;-65
2022/02/17 11:38:57;;;;;;;50.20;35.50;;;;;;;;;;4973757;28;20062;-66
2022/02/17 11:41:27;;;;;;;49.50;33.17;;;;;;;;;;4974217;28;20046;-69
2022/02/17 11:43:53;;;;;;;49.07;33.20;;;;;;;;;;4977923;28;20458;-67
2022/02/17 11:46:56;;;;;;;48.27;33.23;;;;;;;;;;4977804;28;20050;-69
2022/02/17 11:49:31;;;;;;;46.22;31.88;;;;;;;;;;4917836;29;20048;-66
2022/02/17 11:52:09;;;;;;;48.03;33.43;;;;;;;;;;4969587;28;20043;-65
2022/02/17 11:54:36;;;;;;;46.87;33.83;;;;;;;;;;4977721;28;20035;-65
2022/02/17 11:57:02;;;;;;;48.83;33.57;;;;;;;;;;4977607;28;20058;-65
2022/02/17 11:59:36;;;;;;;48.73;33.53;;;;;;;;;;4977482;28;20122;-65
2022/02/17 12:02:03;;;;;;;52.83;34.47;;;;;;;;;;4977408;28;20403;-65
2022/02/17 12:04:32;;;;;;;47.00;33.13;;;;;;;;;;4977638;28;20034;-65
2022/02/17 12:07:01;;;;;;;50.33;32.67;;;;;;;;;;4977343;28;20035;-65
2022/02/17 12:11:57;;;;;;;46.85;33.20;;;;;;;;;;4977449;28;20041;-64
2022/02/17 12:14:23;;;;;;;43.90;31.97;;;;;;;;;;4977145;28;20050;-66
2022/02/17 12:16:54;;;;;;;45.72;32.22;;;;;;;;;;4976968;28;20503;-64
2022/02/17 12:19:21;;;;;;;45.43;32.93;;;;;;;;;;4976850;28;20043;-65
2022/02/17 12:21:48;;;;;;;48.20;32.77;;;;;;;;;;4977387;28;20102;-65
2022/02/17 12:24:15;;;;;;;44.78;31.90;;;;;;;;;;4976977;28;20093;-65
2022/02/17 12:26:50;;;;;;;46.23;33.03;;;;;;;;;;4975841;28;20058;-63
2022/02/17 12:29:33;;;;;;;44.63;32.53;;;;;;;;;;4996420;28;20026;-66
2022/02/17 12:32:00;;;;;;;44.53;30.88;;;;;;;;;;5009189;28;20479;-64
2022/02/17 12:34:26;;;;;;;42.33;32.03;;;;;;;;;;5015774;28;20556;-64
2022/02/17 12:36:52;;;;;;;42.55;31.05;;;;;;;;;;5015858;28;20157;-64
2022/02/17 12:39:19;;;;;;;45.30;31.83;;;;;;;;;;5015707;28;20037;-64
2022/02/17 12:42:00;;;;;;;45.80;31.17;;;;;;;;;;5015293;28;20046;-65
2022/02/17 12:44:31;;;;;;;44.37;31.60;;;;;;;;;;5015084;28;20026;-70
2022/02/17 12:46:57;;;;;;;44.07;31.13;;;;;;;;;;5015413;28;20069;-66
2022/02/17 12:49:25;;;;;;;44.60;31.53;;;;;;;;;;5013185;28;20038;-65
2022/02/17 12:51:51;;;;;;;49.23;32.40;;;;;;;;;;5012916;28;20490;-67
2022/02/17 12:54:17;;;;;;;48.63;32.37;;;;;;;;;;5010991;28;20033;-66
2022/02/17 12:56:47;;;;;;;46.17;32.80;;;;;;;;;;5012576;28;20038;-65
2022/02/17 12:59:13;;;;;;;47.03;32.07;;;;;;;;;;5014187;28;20113;-66
2022/02/17 13:01:41;;;;;;;43.30;31.93;;;;;;;;;;5015393;28;20057;-70
2022/02/17 13:04:07;;;;;;;42.67;31.47;;;;;;;;;;5015211;28;20041;-66
2022/02/17 13:06:34;;;;;;;44.77;30.30;;;;;;;;;;5015069;28;20487;-66
2022/02/17 13:09:16;;;;;;;45.47;32.53;;;;;;;;;;5015091;28;20104;-66
2022/02/17 13:11:53;;;;;;;45.33;30.88;;;;;;;;;;5015244;28;20037;-71
2022/02/17 13:14:22;;;;;;;40.97;30.77;;;;;;;;;;5014619;28;20030;-66
2022/02/17 13:16:49;;;;;;;45.97;30.07;;;;;;;;;;5014966;28;20062;-65
2022/02/17 13:19:36;;;;;;;45.93;31.40;;;;;;;;;;5014941;28;20041;-65
2022/02/17 13:22:03;;;;;;;47.27;31.90;;;;;;;;;;5015215;28;20041;-64
2022/02/17 13:24:29;;;;;;;44.07;30.10;;;;;;;;;;5015162;28;20034;-65
2022/02/17 13:27:06;;;;;;;44.73;30.27;;;;;;;;;;5015325;28;20038;-65
2022/02/17 13:29:32;;;;;;;46.50;31.43;;;;;;;;;;5014890;28;20038;-66
2022/02/17 13:31:58;;;;;;;44.43;31.70;;;;;;;;;;5015078;28;20069;-65
2022/02/17 13:34:29;;;;;;;44.60;32.23;;;;;;;;;;5014875;28;20049;-69
2022/02/17 13:37:05;;;;;;;42.53;30.63;;;;;;;;;;5015035;28;20030;-66
2022/02/17 13:39:31;;;;;;;41.50;30.03;;;;;;;;;;5014747;28;20045;-70
2022/02/17 13:42:02;;;;;;;41.15;30.20;;;;;;;;;;5014414;28;20046;-67
2022/02/17 13:44:46;;;;;;;43.20;30.57;;;;;;;;;;5014539;28;20038;-69
2022/02/17 13:47:13;;;;;;;42.20;29.07;;;;;;;;;;5014820;28;20030;-65
2022/02/17 13:49:43;;;;;;;42.90;30.10;;;;;;;;;;5009690;28;20037;-64
2022/02/17 13:52:19;;;;;;;43.45;28.58;;;;;;;;;;4994471;28;20030;-71
2022/02/17 13:54:49;;;;;;;38.03;26.63;;;;;;;;;;5003373;28;20034;-70
2022/02/17 13:57:16;;;;;;;38.80;28.10;;;;;;;;;;5014226;28;20038;-65
2022/02/17 13:59:42;;;;;;;37.07;27.13;;;;;;;;;;5014532;28;20057;-65
2022/02/17 14:02:09;;;;;;;38.80;27.53;;;;;;;;;;5014192;28;20490;-70
2022/02/17 14:04:36;;;;;;;39.90;29.07;;;;;;;;;;5014219;28;20030;-65
2022/02/17 14:07:03;;;;;;;54.28;35.58;;;;;;;;;;5014183;28;20038;-66
2022/02/17 14:09:32;;;;;;;48.73;33.53;;;;;;;;;;5014066;28;20037;-68
2022/02/17 14:11:59;;;;;;;44.37;29.57;;;;;;;;;;5013875;28;20486;-65
2022/02/17 14:14:25;;;;;;;38.28;27.25;;;;;;;;;;5014379;28;20100;-69
2022/02/17 14:16:54;;;;;;;42.15;27.55;;;;;;;;;;5014280;28;20062;-65
2022/02/17 14:19:21;;;;;;;37.72;26.80;;;;;;;;;;5014200;28;20052;-65
2022/02/17 14:21:47;;;;;;;37.13;25.55;;;;;;;;;;5014308;28;20050;-65